createdAt,value
2019-02-20T00:00:51.135Z,101521.22
2019-02-20T00:01:57.856Z,101522.89
2019-02-20T00:03:04.873Z,101523.75
2019-02-20T00:04:11.641Z,101523.77
2019-02-20T00:05:18.953Z,101518.22
2019-02-20T00:06:26.323Z,101520.34
2019-02-20T00:07:33.532Z,101519.06
2019-02-20T00:08:40.225Z,101518.20
2019-02-20T00:09:46.909Z,101518.66
2019-02-20T00:10:53.809Z,101520.34
2019-02-20T00:12:00.503Z,101523.30
2019-02-20T00:13:07.711Z,101526.31
2019-02-20T00:14:14.748Z,101528.38
2019-02-20T00:15:22.128Z,101525.39
2019-02-20T00:16:29.757Z,101520.73
2019-02-20T00:17:36.832Z,101518.59
2019-02-20T00:18:43.548Z,101524.95
2019-02-20T00:19:50.670Z,101523.69
2019-02-20T00:20:57.359Z,101524.94
2019-02-20T00:22:04.489Z,101524.51
2019-02-20T00:23:11.198Z,101528.28
2019-02-20T00:24:18.242Z,101525.33
2019-02-20T00:25:25.240Z,101527.00
2019-02-20T00:26:31.905Z,101526.53
2019-02-20T00:27:38.816Z,101522.70
2019-02-20T00:28:45.982Z,101518.88
2019-02-20T00:29:53.048Z,101518.48
2019-02-20T00:30:59.769Z,101521.92
2019-02-20T00:32:06.849Z,101518.52
2019-02-20T00:33:14.566Z,101521.91
2019-02-20T00:34:21.343Z,101521.91
2019-02-20T00:35:28.360Z,101526.59
2019-02-20T00:36:35.091Z,101525.33
2019-02-20T00:37:42.217Z,101523.62
2019-02-20T00:38:48.982Z,101524.90
2019-02-20T00:39:56.080Z,101521.93
2019-02-20T00:41:02.740Z,101523.23
2019-02-20T00:42:09.465Z,101527.91
2019-02-20T00:43:16.170Z,101523.28
2019-02-20T00:44:30.838Z,101524.16
2019-02-20T00:45:49.401Z,101525.02
2019-02-20T00:47:14.471Z,101518.27
2019-02-20T00:48:55.501Z,101519.95
2019-02-20T00:50:02.227Z,101523.77
2019-02-20T00:51:18.545Z,101526.72
2019-02-20T00:52:49.851Z,101525.47
2019-02-20T00:53:56.316Z,101529.27
2019-02-20T00:55:02.973Z,101529.73
2019-02-20T00:56:09.674Z,101528.46
2019-02-20T00:57:16.686Z,101527.19
2019-02-20T00:58:23.529Z,101528.87
2019-02-20T00:59:30.515Z,101528.03
2019-02-20T01:00:37.179Z,101529.30
2019-02-20T01:01:43.939Z,101528.87
2019-02-20T01:02:50.618Z,101531.00
2019-02-20T01:03:57.355Z,101531.41
2019-02-20T01:05:04.622Z,101536.53
2019-02-20T01:06:11.655Z,101537.39
2019-02-20T01:07:18.376Z,101545.47
2019-02-20T01:08:25.408Z,101542.05
2019-02-20T01:09:32.138Z,101547.59
2019-02-20T01:10:38.839Z,101548.44
2019-02-20T01:11:45.535Z,101545.48
2019-02-20T01:12:53.970Z,101545.47
2019-02-20T01:14:00.776Z,101549.73
2019-02-20T01:15:08.762Z,101548.01
2019-02-20T01:16:15.464Z,101548.88
2019-02-20T01:17:22.477Z,101545.89
2019-02-20T01:18:29.534Z,101546.72
2019-02-20T01:19:36.276Z,101549.70
2019-02-20T01:20:42.973Z,101550.14
2019-02-20T01:21:50.041Z,101549.75
2019-02-20T01:22:59.791Z,101545.05
2019-02-20T01:24:05.606Z,101547.20
2019-02-20T01:25:13.741Z,101540.85
2019-02-20T01:26:20.620Z,101542.97
2019-02-20T01:27:27.582Z,101541.71
2019-02-20T01:28:34.530Z,101545.95
2019-02-20T01:29:41.273Z,101550.62
2019-02-20T01:30:48.013Z,101548.09
2019-02-20T01:31:54.879Z,101542.98
2019-02-20T01:33:02.292Z,101546.37
2019-02-20T01:34:08.988Z,101554.40
2019-02-20T01:35:15.739Z,101549.33
2019-02-20T01:36:22.461Z,101551.04
2019-02-20T01:37:29.442Z,101549.82
2019-02-20T01:38:36.133Z,101554.45
2019-02-20T01:39:42.812Z,101554.45
2019-02-20T01:40:49.550Z,101552.77
2019-02-20T01:41:56.220Z,101546.83
2019-02-20T01:43:03.296Z,101554.44
2019-02-20T01:44:10.282Z,101550.64
2019-02-20T01:45:17.048Z,101551.04
2019-02-20T01:46:23.737Z,101552.76
2019-02-20T01:47:30.389Z,101550.66
2019-02-20T01:48:37.167Z,101543.88
2019-02-20T01:49:44.265Z,101545.16
2019-02-20T01:50:51.294Z,101548.13
2019-02-20T01:51:58.002Z,101549.41
2019-02-20T01:53:10.416Z,101547.71
2019-02-20T01:54:13.929Z,101550.64
2019-02-20T01:55:20.703Z,101545.58
2019-02-20T01:56:27.747Z,101546.84
2019-02-20T01:57:34.588Z,101548.52
2019-02-20T01:58:41.355Z,101540.89
2019-02-20T01:59:48.068Z,101544.27
2019-02-20T02:00:55.156Z,101541.34
2019-02-20T02:02:02.186Z,101535.37
2019-02-20T02:03:08.879Z,101540.05
2019-02-20T02:04:15.845Z,101537.92
2019-02-20T02:05:22.701Z,101536.66
2019-02-20T02:06:29.764Z,101543.45
2019-02-20T02:07:36.454Z,101536.66
2019-02-20T02:08:43.223Z,101536.27
2019-02-20T02:09:50.319Z,101542.20
2019-02-20T02:10:57.040Z,101540.91
2019-02-20T02:12:03.745Z,101543.02
2019-02-20T02:13:10.795Z,101543.02
2019-02-20T02:14:18.250Z,101540.89
2019-02-20T02:15:25.287Z,101548.11
2019-02-20T02:16:32.162Z,101539.64
2019-02-20T02:17:38.824Z,101540.93
2019-02-20T02:18:46.262Z,101537.95
2019-02-20T02:19:53.017Z,101540.52
2019-02-20T02:20:59.747Z,101534.59
2019-02-20T02:22:06.877Z,101533.75
2019-02-20T02:23:19.622Z,101542.23
2019-02-20T02:24:22.549Z,101542.23
2019-02-20T02:25:29.233Z,101539.71
2019-02-20T02:26:35.905Z,101541.83
2019-02-20T02:27:42.643Z,101541.89
2019-02-20T02:28:49.773Z,101538.94
2019-02-20T02:29:57.326Z,101540.64
2019-02-20T02:31:04.062Z,101542.34
2019-02-20T02:32:10.807Z,101538.03
2019-02-20T02:33:17.822Z,101535.91
2019-02-20T02:34:24.551Z,101540.97
2019-02-20T02:35:31.234Z,101539.70
2019-02-20T02:36:38.202Z,101535.90
2019-02-20T02:37:44.971Z,101537.16
2019-02-20T02:38:51.651Z,101542.69
2019-02-20T02:39:58.512Z,101534.18
2019-02-20T02:41:05.514Z,101543.94
2019-02-20T02:42:12.625Z,101535.47
2019-02-20T02:43:19.636Z,101538.41
2019-02-20T02:44:26.327Z,101532.48
2019-02-20T02:45:33.178Z,101535.08
2019-02-20T02:46:39.877Z,101534.18
2019-02-20T02:47:46.562Z,101533.36
2019-02-20T02:48:53.327Z,101534.18
2019-02-20T02:50:00.336Z,101531.20
2019-02-20T02:51:07.374Z,101536.72
2019-02-20T02:52:14.663Z,101536.72
2019-02-20T02:53:30.285Z,101534.20
2019-02-20T02:54:30.209Z,101532.91
2019-02-20T02:55:36.953Z,101533.78
2019-02-20T02:56:43.783Z,101532.52
2019-02-20T02:57:51.182Z,101531.64
2019-02-20T02:58:58.228Z,101529.08
2019-02-20T03:00:05.848Z,101526.97
2019-02-20T03:01:12.652Z,101529.92
2019-02-20T03:02:19.828Z,101526.95
2019-02-20T03:03:26.570Z,101530.77
2019-02-20T03:04:33.296Z,101524.41
2019-02-20T03:05:39.944Z,101529.49
2019-02-20T03:06:46.672Z,101526.11
2019-02-20T03:07:53.551Z,101528.22
2019-02-20T03:09:00.315Z,101528.65
2019-02-20T03:10:07.816Z,101527.77
2019-02-20T03:11:14.627Z,101523.56
2019-02-20T03:12:21.657Z,101526.95
2019-02-20T03:13:28.602Z,101525.23
2019-02-20T03:14:35.279Z,101530.30
2019-02-20T03:15:42.067Z,101532.46
2019-02-20T03:16:48.759Z,101526.95
2019-02-20T03:17:55.474Z,101531.61
2019-02-20T03:19:02.183Z,101529.91
2019-02-20T03:20:09.472Z,101526.97
2019-02-20T03:21:17.396Z,101538.41
2019-02-20T03:22:24.050Z,101536.69
2019-02-20T03:23:39.802Z,101537.11
2019-02-20T03:24:39.156Z,101541.77
2019-02-20T03:25:46.421Z,101538.38
2019-02-20T03:26:53.075Z,101532.03
2019-02-20T03:28:00.160Z,101535.86
2019-02-20T03:29:06.869Z,101541.36
2019-02-20T03:30:13.915Z,101546.83
2019-02-20T03:31:21.108Z,101539.58
2019-02-20T03:32:28.279Z,101538.76
2019-02-20T03:33:35.358Z,101543.88
2019-02-20T03:34:42.396Z,101546.83
2019-02-20T03:35:49.528Z,101548.09
2019-02-20T03:36:56.207Z,101548.52
2019-02-20T03:38:03.337Z,101548.09
2019-02-20T03:39:10.054Z,101547.67
2019-02-20T03:40:16.753Z,101548.94
2019-02-20T03:41:23.752Z,101546.83
2019-02-20T03:42:30.495Z,101542.16
2019-02-20T03:43:37.171Z,101542.16
2019-02-20T03:44:44.189Z,101543.00
2019-02-20T03:45:51.199Z,101542.58
2019-02-20T03:46:57.963Z,101542.95
2019-02-20T03:48:04.750Z,101545.50
2019-02-20T03:49:11.773Z,101540.41
2019-02-20T03:50:18.817Z,101539.09
2019-02-20T03:51:26.081Z,101547.16
2019-02-20T03:52:33.499Z,101546.33
2019-02-20T03:53:50.850Z,101546.33
2019-02-20T03:54:48.682Z,101545.08
2019-02-20T03:55:55.570Z,101544.64
2019-02-20T03:57:02.700Z,101549.77
2019-02-20T03:58:09.379Z,101549.33
2019-02-20T03:59:16.540Z,101546.80
2019-02-20T04:00:23.276Z,101548.49
2019-02-20T04:01:29.986Z,101555.30
2019-02-20T04:02:37.211Z,101554.42
2019-02-20T04:03:44.324Z,101550.64
2019-02-20T04:04:51.377Z,101544.27
2019-02-20T04:05:58.091Z,101553.55
2019-02-20T04:07:05.139Z,101546.34
2019-02-20T04:08:12.234Z,101549.73
2019-02-20T04:09:19.286Z,101551.84
2019-02-20T04:10:26.647Z,101543.75
2019-02-20T04:11:33.326Z,101544.56
2019-02-20T04:12:40.428Z,101541.16
2019-02-20T04:13:47.345Z,101539.45
2019-02-20T04:14:54.415Z,101545.00
2019-02-20T04:16:01.478Z,101542.91
2019-02-20T04:17:08.500Z,101548.81
2019-02-20T04:18:15.344Z,101542.88
2019-02-20T04:19:22.379Z,101553.46
2019-02-20T04:20:29.448Z,101552.21
2019-02-20T04:21:36.150Z,101548.40
2019-02-20T04:22:43.243Z,101551.80
2019-02-20T04:23:50.006Z,101550.16
2019-02-20T04:24:56.681Z,101545.45
2019-02-20T04:26:03.704Z,101555.61
2019-02-20T04:27:10.829Z,101559.05
2019-02-20T04:28:17.766Z,101550.98
2019-02-20T04:29:24.588Z,101552.25
2019-02-20T04:30:31.911Z,101553.07
2019-02-20T04:31:38.599Z,101553.11
2019-02-20T04:32:45.666Z,101555.23
2019-02-20T04:33:52.805Z,101550.95
2019-02-20T04:34:59.490Z,101553.09
2019-02-20T04:36:06.205Z,101557.34
2019-02-20T04:37:12.936Z,101557.73
2019-02-20T04:38:20.421Z,101556.00
2019-02-20T04:39:27.118Z,101564.05
2019-02-20T04:40:34.610Z,101557.72
2019-02-20T04:41:41.716Z,101554.77
2019-02-20T04:42:49.083Z,101558.16
2019-02-20T04:43:55.832Z,101559.81
2019-02-20T04:45:02.532Z,101555.57
2019-02-20T04:46:09.602Z,101561.06
2019-02-20T04:47:16.299Z,101552.59
2019-02-20T04:48:23.222Z,101556.39
2019-02-20T04:49:30.145Z,101561.06
2019-02-20T04:50:37.128Z,101554.23
2019-02-20T04:51:44.018Z,101560.61
2019-02-20T04:52:50.759Z,101558.05
2019-02-20T04:53:57.598Z,101556.31
2019-02-20T04:55:04.378Z,101556.30
2019-02-20T04:56:11.146Z,101551.24
2019-02-20T04:57:17.964Z,101552.92
2019-02-20T04:58:25.311Z,101547.86
2019-02-20T04:59:32.014Z,101547.01
2019-02-20T05:00:38.759Z,101554.63
2019-02-20T05:01:45.846Z,101551.66
2019-02-20T05:02:52.923Z,101549.55
2019-02-20T05:03:59.962Z,101547.02
2019-02-20T05:05:06.819Z,101552.98
2019-02-20T05:06:13.719Z,101554.22
2019-02-20T05:07:20.802Z,101552.52
2019-02-20T05:08:28.185Z,101552.98
2019-02-20T05:09:35.097Z,101548.70
2019-02-20T05:10:41.833Z,101555.48
2019-02-20T05:11:48.930Z,101551.23
2019-02-20T05:12:55.618Z,101552.52
2019-02-20T05:14:02.318Z,101549.13
2019-02-20T05:15:09.420Z,101547.41
2019-02-20T05:16:16.531Z,101552.10
2019-02-20T05:17:23.789Z,101548.23
2019-02-20T05:18:30.466Z,101547.81
2019-02-20T05:19:37.172Z,101549.52
2019-02-20T05:20:44.010Z,101551.62
2019-02-20T05:21:51.049Z,101554.16
2019-02-20T05:22:57.749Z,101554.97
2019-02-20T05:24:04.541Z,101558.33
2019-02-20T05:25:11.247Z,101549.01
2019-02-20T05:26:18.328Z,101559.17
2019-02-20T05:27:25.510Z,101557.05
2019-02-20T05:28:32.222Z,101555.37
2019-02-20T05:29:39.166Z,101557.47
2019-02-20T05:30:45.901Z,101555.78
2019-02-20T05:31:53.416Z,101548.98
2019-02-20T05:33:00.496Z,101558.33
2019-02-20T05:34:07.166Z,101555.36
2019-02-20T05:35:13.957Z,101554.47
2019-02-20T05:36:21.111Z,101556.98
2019-02-20T05:37:27.866Z,101556.59
2019-02-20T05:38:34.581Z,101558.26
2019-02-20T05:39:41.264Z,101556.61
2019-02-20T05:40:48.091Z,101557.08
2019-02-20T05:41:54.792Z,101556.23
2019-02-20T05:43:01.841Z,101554.93
2019-02-20T05:44:08.913Z,101560.84
2019-02-20T05:45:15.991Z,101559.59
2019-02-20T05:46:22.887Z,101561.29
2019-02-20T05:47:29.976Z,101559.59
2019-02-20T05:48:37.077Z,101555.80
2019-02-20T05:49:43.713Z,101558.73
2019-02-20T05:50:50.594Z,101555.33
2019-02-20T05:51:57.311Z,101553.61
2019-02-20T05:53:04.328Z,101557.02
2019-02-20T05:54:11.069Z,101556.17
2019-02-20T05:55:18.185Z,101550.66
2019-02-20T05:56:25.295Z,101551.94
2019-02-20T05:57:31.996Z,101558.30
2019-02-20T05:58:39.408Z,101552.41
2019-02-20T05:59:46.321Z,101547.32
2019-02-20T06:00:53.026Z,101554.05
2019-02-20T06:02:00.287Z,101549.82
2019-02-20T06:03:07.003Z,101556.17
2019-02-20T06:04:14.078Z,101554.06
2019-02-20T06:05:20.802Z,101557.03
2019-02-20T06:06:27.528Z,101560.39
2019-02-20T06:07:34.257Z,101562.95
2019-02-20T06:08:40.911Z,101560.44
2019-02-20T06:09:48.387Z,101558.75
2019-02-20T06:10:55.038Z,101557.92
2019-02-20T06:12:02.179Z,101565.13
2019-02-20T06:13:09.155Z,101560.91
2019-02-20T06:14:15.938Z,101567.25
2019-02-20T06:15:22.628Z,101567.23
2019-02-20T06:16:30.501Z,101565.98
2019-02-20T06:17:38.059Z,101569.78
2019-02-20T06:18:45.283Z,101571.45
2019-02-20T06:19:52.490Z,101567.69
2019-02-20T06:20:59.530Z,101572.33
2019-02-20T06:22:06.240Z,101570.19
2019-02-20T06:23:13.405Z,101574.02
2019-02-20T06:24:20.423Z,101574.02
2019-02-20T06:25:27.392Z,101574.45
2019-02-20T06:26:34.147Z,101576.16
2019-02-20T06:27:40.896Z,101573.63
2019-02-20T06:28:47.681Z,101577.00
2019-02-20T06:29:54.680Z,101577.41
2019-02-20T06:31:01.827Z,101573.17
2019-02-20T06:32:08.513Z,101573.16
2019-02-20T06:33:15.344Z,101579.08
2019-02-20T06:34:22.093Z,101575.70
2019-02-20T06:35:29.083Z,101579.94
2019-02-20T06:36:36.205Z,101578.64
2019-02-20T06:37:42.959Z,101575.66
2019-02-20T06:38:50.053Z,101576.91
2019-02-20T06:39:57.040Z,101581.16
2019-02-20T06:41:04.558Z,101579.44
2019-02-20T06:42:11.352Z,101584.54
2019-02-20T06:43:18.091Z,101581.16
2019-02-20T06:44:24.848Z,101583.70
2019-02-20T06:45:32.392Z,101578.17
2019-02-20T06:46:39.153Z,101581.61
2019-02-20T06:47:46.188Z,101584.99
2019-02-20T06:48:53.383Z,101587.47
2019-02-20T06:50:01.234Z,101587.44
2019-02-20T06:51:09.332Z,101586.58
2019-02-20T06:52:16.465Z,101587.44
2019-02-20T06:53:23.455Z,101584.91
2019-02-20T06:54:30.194Z,101585.28
2019-02-20T06:55:37.202Z,101586.52
2019-02-20T06:56:44.324Z,101579.31
2019-02-20T06:57:51.023Z,101581.45
2019-02-20T06:58:57.716Z,101583.97
2019-02-20T07:00:04.511Z,101578.45
2019-02-20T07:01:11.225Z,101584.80
2019-02-20T07:02:18.527Z,101582.21
2019-02-20T07:03:25.365Z,101582.19
2019-02-20T07:04:32.824Z,101583.86
2019-02-20T07:05:46.015Z,101587.69
2019-02-20T07:07:50.943Z,101580.09
2019-02-20T07:09:38.346Z,101591.92
2019-02-20T07:11:28.273Z,101599.55
2019-02-20T07:12:58.576Z,101600.34
2019-02-20T07:14:54.597Z,101603.73
2019-02-20T07:17:00.025Z,101599.45
2019-02-20T07:18:52.611Z,101601.98
2019-02-20T07:20:57.353Z,101601.12
2019-02-20T07:22:48.587Z,101608.73
2019-02-20T07:24:33.283Z,101612.17
2019-02-20T07:26:17.847Z,101616.44
2019-02-20T07:28:23.782Z,101617.71
2019-02-20T07:29:44.896Z,101614.77
2019-02-20T07:30:52.478Z,101613.55
2019-02-20T07:31:59.163Z,101616.13
2019-02-20T07:33:05.872Z,101617.83
2019-02-20T07:34:12.587Z,101620.36
2019-02-20T07:35:19.373Z,101622.48
2019-02-20T07:36:26.427Z,101622.91
2019-02-20T07:37:33.226Z,101625.48
2019-02-20T07:38:40.347Z,101620.85
2019-02-20T07:39:47.341Z,101619.59
2019-02-20T07:40:54.409Z,101623.47
2019-02-20T07:42:01.273Z,101629.37
2019-02-20T07:43:08.317Z,101628.98
2019-02-20T07:44:15.017Z,101630.30
2019-02-20T07:45:21.917Z,101628.67
2019-02-20T07:46:30.772Z,101631.66
2019-02-20T07:47:37.710Z,101624.94
2019-02-20T07:48:44.503Z,101632.20
2019-02-20T07:49:51.224Z,101633.92
2019-02-20T07:50:57.949Z,101639.87
2019-02-20T07:52:04.707Z,101633.13
2019-02-20T07:53:11.434Z,101640.36
2019-02-20T07:54:18.255Z,101640.84
2019-02-20T07:55:25.331Z,101638.73
2019-02-20T07:56:32.445Z,101641.74
2019-02-20T07:57:39.161Z,101643.87
2019-02-20T07:58:46.195Z,101648.13
2019-02-20T07:59:52.896Z,101645.21
2019-02-20T08:00:59.621Z,101645.70
2019-02-20T08:02:06.325Z,101649.98
2019-02-20T08:03:13.551Z,101649.15
2019-02-20T08:04:20.723Z,101658.06
2019-02-20T08:05:27.441Z,101656.34
2019-02-20T08:06:34.598Z,101657.61
2019-02-20T08:07:41.300Z,101659.75
2019-02-20T08:08:48.023Z,101660.63
2019-02-20T08:09:54.844Z,101667.05
2019-02-20T08:11:02.020Z,101670.02
2019-02-20T08:12:08.805Z,101670.02
2019-02-20T08:13:16.275Z,101667.47
2019-02-20T08:14:23.031Z,101671.29
2019-02-20T08:15:29.712Z,101673.86
2019-02-20T08:16:37.151Z,101678.14
2019-02-20T08:17:43.920Z,101673.91
2019-02-20T08:18:50.684Z,101678.98
2019-02-20T08:19:57.387Z,101681.56
2019-02-20T08:21:04.735Z,101682.81
2019-02-20T08:22:11.788Z,101679.06
2019-02-20T08:23:18.484Z,101683.71
2019-02-20T08:24:25.545Z,101684.14
2019-02-20T08:25:32.646Z,101687.53
2019-02-20T08:26:39.815Z,101688.39
2019-02-20T08:27:47.398Z,101688.02
2019-02-20T08:28:54.134Z,101688.00
2019-02-20T08:30:00.904Z,101691.80
2019-02-20T08:31:08.335Z,101690.94
2019-02-20T08:32:15.458Z,101693.52
2019-02-20T08:33:22.252Z,101699.05
2019-02-20T08:34:28.982Z,101692.70
2019-02-20T08:35:35.678Z,101700.37
2019-02-20T08:36:42.375Z,101699.54
2019-02-20T08:37:49.213Z,101698.68
2019-02-20T08:38:55.930Z,101699.99
2019-02-20T08:40:02.792Z,101699.62
2019-02-20T08:41:09.569Z,101699.66
2019-02-20T08:42:16.679Z,101703.54
2019-02-20T08:43:23.393Z,101705.22
2019-02-20T08:44:30.116Z,101700.98
2019-02-20T08:45:37.164Z,101705.67
2019-02-20T08:46:44.842Z,101711.20
2019-02-20T08:47:51.938Z,101711.66
2019-02-20T08:48:58.643Z,101709.98
2019-02-20T08:50:06.290Z,101710.02
2019-02-20T08:51:13.077Z,101710.48
2019-02-20T08:52:19.934Z,101714.33
2019-02-20T08:53:27.029Z,101713.53
2019-02-20T08:54:34.006Z,101718.23
2019-02-20T08:55:40.708Z,101718.66
2019-02-20T08:56:47.884Z,101716.52
2019-02-20T08:57:55.146Z,101720.76
2019-02-20T08:59:01.837Z,101714.41
2019-02-20T09:00:12.095Z,101720.38
2019-02-20T09:01:18.774Z,101725.02
2019-02-20T09:02:25.557Z,101720.33
2019-02-20T09:03:32.270Z,101720.77
2019-02-20T09:04:39.195Z,101725.86
2019-02-20T09:05:46.136Z,101723.31
2019-02-20T09:06:52.869Z,101728.42
2019-02-20T09:07:59.947Z,101726.34
2019-02-20T09:09:07.877Z,101724.70
2019-02-20T09:10:17.179Z,101722.59
2019-02-20T09:11:23.801Z,101725.13
2019-02-20T09:12:30.843Z,101725.59
2019-02-20T09:13:37.938Z,101726.02
2019-02-20T09:14:44.652Z,101728.58
2019-02-20T09:15:51.375Z,101728.13
2019-02-20T09:16:58.078Z,101734.98
2019-02-20T09:18:04.814Z,101735.01
2019-02-20T09:19:11.559Z,101736.67
2019-02-20T09:20:18.245Z,101736.27
2019-02-20T09:21:24.973Z,101734.58
2019-02-20T09:22:31.724Z,101738.36
2019-02-20T09:23:38.867Z,101737.11
2019-02-20T09:24:45.583Z,101734.16
2019-02-20T09:25:52.747Z,101745.20
2019-02-20T09:26:59.538Z,101743.94
2019-02-20T09:28:06.301Z,101745.23
2019-02-20T09:29:13.290Z,101738.47
2019-02-20T09:30:28.360Z,101739.77
2019-02-20T09:31:28.482Z,101745.29
2019-02-20T09:32:35.238Z,101739.33
2019-02-20T09:33:41.932Z,101734.66
2019-02-20T09:34:49.026Z,101740.19
2019-02-20T09:35:56.179Z,101742.73
2019-02-20T09:37:04.204Z,101737.67
2019-02-20T09:38:10.971Z,101744.03
2019-02-20T09:39:36.673Z,101736.45
2019-02-20T09:40:43.684Z,101739.02
2019-02-20T09:41:50.477Z,101743.73
2019-02-20T09:42:57.448Z,101743.30
2019-02-20T09:44:04.495Z,101743.70
2019-02-20T09:45:11.439Z,101743.32
2019-02-20T09:46:18.131Z,101739.94
2019-02-20T09:47:25.080Z,101743.77
2019-02-20T09:48:32.114Z,101744.20
2019-02-20T09:49:39.453Z,101749.74
2019-02-20T09:50:47.714Z,101750.61
2019-02-20T09:51:54.719Z,101747.64
2019-02-20T09:53:01.744Z,101752.36
2019-02-20T09:54:08.831Z,101759.65
2019-02-20T09:55:15.591Z,101754.56
2019-02-20T09:56:22.631Z,101761.38
2019-02-20T09:57:29.342Z,101760.53
2019-02-20T09:58:36.029Z,101756.69
2019-02-20T09:59:42.788Z,101764.80
2019-02-20T10:00:49.477Z,101757.58
2019-02-20T10:01:57.373Z,101760.55
2019-02-20T10:03:04.408Z,101760.53
2019-02-20T10:04:11.184Z,101765.22
2019-02-20T10:05:17.962Z,101766.50
2019-02-20T10:06:24.664Z,101764.80
2019-02-20T10:07:31.559Z,101765.63
2019-02-20T10:08:38.219Z,101764.80
2019-02-20T10:09:44.939Z,101776.73
2019-02-20T10:10:51.743Z,101765.23
2019-02-20T10:11:58.460Z,101760.98
2019-02-20T10:13:05.754Z,101769.92
2019-02-20T10:14:12.573Z,101771.63
2019-02-20T10:15:19.287Z,101772.03
2019-02-20T10:16:26.789Z,101770.73
2019-02-20T10:17:33.515Z,101772.02
2019-02-20T10:18:40.252Z,101778.39
2019-02-20T10:19:47.335Z,101772.42
2019-02-20T10:20:54.104Z,101766.88
2019-02-20T10:22:01.212Z,101773.67
2019-02-20T10:23:07.871Z,101777.89
2019-02-20T10:24:15.405Z,101774.45
2019-02-20T10:25:22.167Z,101779.60
2019-02-20T10:26:29.003Z,101783.47
2019-02-20T10:27:36.092Z,101781.75
2019-02-20T10:28:42.792Z,101780.91
2019-02-20T10:29:49.492Z,101781.32
2019-02-20T10:30:56.780Z,101784.74
2019-02-20T10:32:03.445Z,101790.29
2019-02-20T10:33:10.188Z,101787.27
2019-02-20T10:34:16.918Z,101786.44
2019-02-20T10:35:23.627Z,101784.28
2019-02-20T10:36:30.942Z,101787.28
2019-02-20T10:37:38.011Z,101791.95
2019-02-20T10:38:44.750Z,101786.81
2019-02-20T10:39:51.561Z,101793.17
2019-02-20T10:40:58.258Z,101794.86
2019-02-20T10:42:06.100Z,101799.53
2019-02-20T10:43:12.772Z,101796.53
2019-02-20T10:44:19.486Z,101802.93
2019-02-20T10:45:26.503Z,101796.97
2019-02-20T10:46:33.595Z,101799.56
2019-02-20T10:47:40.701Z,101789.73
2019-02-20T10:48:47.444Z,101798.29
2019-02-20T10:49:54.116Z,101796.17
2019-02-20T10:51:00.795Z,101795.77
2019-02-20T10:52:07.489Z,101797.48
2019-02-20T10:53:14.413Z,101803.47
2019-02-20T10:54:21.105Z,101802.22
2019-02-20T10:55:27.853Z,101804.34
2019-02-20T10:56:34.871Z,101807.73
2019-02-20T10:57:41.588Z,101799.22
2019-02-20T10:58:48.291Z,101801.31
2019-02-20T10:59:54.969Z,101806.02
2019-02-20T11:01:02.164Z,101805.99
2019-02-20T11:02:09.402Z,101805.56
2019-02-20T11:03:16.095Z,101810.23
2019-02-20T11:04:22.908Z,101808.09
2019-02-20T11:05:30.055Z,101804.25
2019-02-20T11:06:36.750Z,101809.36
2019-02-20T11:07:43.790Z,101810.20
2019-02-20T11:08:50.763Z,101809.77
2019-02-20T11:09:58.259Z,101809.77
2019-02-20T11:11:05.349Z,101803.81
2019-02-20T11:12:12.335Z,101807.24
2019-02-20T11:13:19.402Z,101808.09
2019-02-20T11:14:26.143Z,101807.64
2019-02-20T11:15:33.258Z,101804.20
2019-02-20T11:16:40.693Z,101809.33
2019-02-20T11:17:47.392Z,101805.09
2019-02-20T11:18:54.767Z,101802.52
2019-02-20T11:20:01.485Z,101807.64
2019-02-20T11:21:08.516Z,101810.23
2019-02-20T11:22:15.658Z,101801.25
2019-02-20T11:23:22.331Z,101802.48
2019-02-20T11:24:29.747Z,101802.89
2019-02-20T11:25:36.820Z,101804.16
2019-02-20T11:26:53.175Z,101798.19
2019-02-20T11:27:52.725Z,101802.87
2019-02-20T11:28:59.513Z,101808.44
2019-02-20T11:30:08.591Z,101799.05
2019-02-20T11:31:15.270Z,101804.55
2019-02-20T11:32:22.019Z,101802.83
2019-02-20T11:33:29.110Z,101805.43
2019-02-20T11:34:36.104Z,101806.28
2019-02-20T11:35:42.989Z,101810.51
2019-02-20T11:36:49.702Z,101806.22
2019-02-20T11:37:56.784Z,101804.05
2019-02-20T11:39:05.187Z,101805.28
2019-02-20T11:40:12.286Z,101803.98
2019-02-20T11:41:19.002Z,101805.66
2019-02-20T11:42:25.980Z,101803.53
2019-02-20T11:43:33.168Z,101806.92
2019-02-20T11:44:40.439Z,101807.72
2019-02-20T11:45:47.516Z,101807.31
2019-02-20T11:46:54.206Z,101806.48
2019-02-20T11:48:01.271Z,101812.45
2019-02-20T11:49:08.335Z,101808.14
2019-02-20T11:50:15.613Z,101809.38
2019-02-20T11:51:22.418Z,101809.00
2019-02-20T11:52:29.098Z,101812.02
2019-02-20T11:53:37.403Z,101806.42
2019-02-20T11:54:44.228Z,101814.10
2019-02-20T11:55:50.971Z,101813.72
2019-02-20T11:56:58.071Z,101811.62
2019-02-20T11:58:05.063Z,101812.39
2019-02-20T11:59:11.825Z,101810.64
2019-02-20T12:00:18.951Z,101810.58
2019-02-20T12:01:26.200Z,101816.53
2019-02-20T12:02:37.440Z,101816.02
2019-02-20T12:03:42.025Z,101813.89
2019-02-20T12:04:48.768Z,101816.97
2019-02-20T12:05:55.566Z,101810.13
2019-02-20T12:07:02.268Z,101806.28
2019-02-20T12:08:09.485Z,101804.16
2019-02-20T12:09:16.239Z,101810.48
2019-02-20T12:10:23.145Z,101809.66
2019-02-20T12:11:30.931Z,101802.43
2019-02-20T12:12:37.953Z,101796.40
2019-02-20T12:13:44.798Z,101803.57
2019-02-20T12:14:51.705Z,101805.30
2019-02-20T12:15:58.394Z,101798.00
2019-02-20T12:17:05.274Z,101800.08
2019-02-20T12:18:17.375Z,101798.28
2019-02-20T12:19:23.491Z,101800.38
2019-02-20T12:20:29.902Z,101804.77
2019-02-20T12:21:36.659Z,101797.09
2019-02-20T12:22:43.357Z,101791.59
2019-02-20T12:23:50.506Z,101793.77
2019-02-20T12:24:59.301Z,101789.45
2019-02-20T12:26:06.398Z,101791.19
2019-02-20T12:27:13.435Z,101792.47
2019-02-20T12:28:20.511Z,101789.84
2019-02-20T12:29:27.252Z,101794.52
2019-02-20T12:30:34.261Z,101787.62
2019-02-20T12:31:41.009Z,101783.95
2019-02-20T12:32:48.069Z,101792.91
2019-02-20T12:33:54.736Z,101792.84
2019-02-20T12:35:01.857Z,101797.05
2019-02-20T12:36:08.877Z,101802.56
2019-02-20T12:37:15.626Z,101801.67
2019-02-20T12:38:22.857Z,101797.42
2019-02-20T12:39:29.554Z,101800.47
2019-02-20T12:40:36.231Z,101793.33
2019-02-20T12:41:43.319Z,101799.72
2019-02-20T12:42:50.367Z,101797.58
2019-02-20T12:43:57.045Z,101805.20
2019-02-20T12:45:03.739Z,101798.44
2019-02-20T12:46:10.777Z,101798.50
2019-02-20T12:47:17.848Z,101798.50
2019-02-20T12:48:25.093Z,101799.73
2019-02-20T12:49:31.820Z,101799.27
2019-02-20T12:50:38.506Z,101801.39
2019-02-20T12:51:45.637Z,101801.84
2019-02-20T12:52:52.745Z,101801.44
2019-02-20T12:53:59.478Z,101804.00
2019-02-20T12:55:06.909Z,101803.99
2019-02-20T12:56:13.968Z,101799.27